Villareales, Texas
Current Conditions -  °F | °C
As of 6:15 AM on Friday 31 Oct 2014 (Local Time) from KEBG Reporting Station
Haze Haze  
Wind Chill: 20°   Ceiling: Unl
Heat Index: 20°   Visibility: 4mi
Dew Point: 18°   Wind: 0mph
Humidity: 91%   Direction: NA
Pressure: 30.08"   Gusts: NA
Location:  26.5735°N, 98.695°W
Report Text: KEBG 311115Z AUTO 00000KT 4SM BR CLR 20/18 A3008 RMK AO2 LTG DSNT N T01950180
Loading
Personal Weather Stations






























Interactive Weather Map
Tropical Storm Tracking
New forecast layout! Learn more

10-Day Weather Forecast

Advertisements
Track Severe Weather on mobile